Arsenal, Utah
Current Conditions -  °F | °C
As of 6:58 AM on Wednesday 26 Nov 2014 (Local Time) from KHIF Reporting Station
Clear Clear  
Wind Chill: 41°   Ceiling: Unl
Heat Index: 41°   Visibility: 10mi
Dew Point: 31°   Wind: 3mph
Humidity: 67%   Direction: 150°SSE
Pressure: 30.36"   Gusts: NA
Location:  41.123°N, 112.063°W
Report Text: KHIF 261358Z AUTO 15003KT 10SM CLR 05/M01 A3036 RMK AO2 SLP278 T00511006
Loading
Personal Weather Stations






























Interactive Weather Map New forecast layout! Learn more

10-Day Weather Forecast

Advertisements
Track Severe Weather on mobile